createdAt,value
2023-04-12T00:00:17.765Z,27.44
2023-04-12T00:01:16.886Z,27.40
2023-04-12T00:02:17.002Z,27.35
2023-04-12T00:03:17.061Z,27.34
2023-04-12T00:04:17.183Z,27.30
2023-04-12T00:05:17.141Z,27.28
2023-04-12T00:06:17.067Z,27.28
2023-04-12T00:07:17.062Z,27.26
2023-04-12T00:08:17.757Z,27.24
2023-04-12T00:09:17.086Z,27.23
2023-04-12T00:10:17.085Z,27.22
2023-04-12T00:11:17.077Z,27.24
2023-04-12T00:12:17.068Z,27.23
2023-04-12T00:13:17.099Z,27.20
2023-04-12T00:14:17.066Z,27.21
2023-04-12T00:15:17.067Z,27.20
2023-04-12T00:16:17.200Z,27.19
2023-04-12T00:17:17.084Z,27.18
2023-04-12T00:18:17.094Z,27.20
2023-04-12T00:19:17.104Z,27.18
2023-04-12T00:20:17.099Z,27.20
2023-04-12T00:21:17.089Z,27.19
2023-04-12T00:22:17.081Z,27.18
2023-04-12T00:23:17.088Z,27.17
2023-04-12T00:24:17.088Z,27.19
2023-04-12T00:25:17.104Z,27.17
2023-04-12T00:26:17.085Z,27.19
2023-04-12T00:27:17.083Z,27.18
2023-04-12T00:28:17.087Z,27.17
2023-04-12T00:29:17.108Z,27.18
2023-04-12T00:30:17.072Z,27.18
2023-04-12T00:31:17.094Z,27.16
2023-04-12T00:32:17.089Z,27.18
2023-04-12T00:33:17.080Z,27.17
2023-04-12T00:34:17.063Z,27.17
2023-04-12T00:35:17.070Z,27.17
2023-04-12T00:36:17.124Z,27.16
2023-04-12T00:37:17.046Z,27.15
2023-04-12T00:38:17.040Z,27.14
2023-04-12T00:39:17.046Z,27.14
2023-04-12T00:40:17.031Z,27.16
2023-04-12T00:41:17.035Z,27.15
2023-04-12T00:42:17.020Z,27.18
2023-04-12T00:43:17.034Z,27.16
2023-04-12T00:44:17.037Z,27.14
2023-04-12T00:45:17.060Z,27.17
2023-04-12T00:46:17.066Z,27.14
2023-04-12T00:47:17.034Z,27.14
2023-04-12T00:48:17.046Z,27.14
2023-04-12T00:49:17.036Z,27.16
2023-04-12T00:50:17.057Z,27.13
2023-04-12T00:51:17.033Z,27.12
2023-04-12T00:52:17.032Z,27.13
2023-04-12T00:53:17.024Z,27.12
2023-04-12T00:54:17.020Z,27.14
2023-04-12T00:55:17.030Z,27.13
2023-04-12T00:56:17.020Z,27.11
2023-04-12T00:57:17.025Z,27.12
2023-04-12T00:58:17.018Z,27.12
2023-04-12T00:59:17.007Z,27.10
2023-04-12T01:00:17.009Z,27.12
2023-04-12T01:01:17.072Z,27.11
2023-04-12T01:02:17.082Z,27.13
2023-04-12T01:03:17.172Z,27.11
2023-04-12T01:04:16.994Z,27.11
2023-04-12T01:05:16.997Z,27.10
2023-04-12T01:06:16.983Z,27.10
2023-04-12T01:07:16.977Z,27.12
2023-04-12T01:08:16.986Z,27.11
2023-04-12T01:09:16.980Z,27.10
2023-04-12T01:10:16.975Z,27.11
2023-04-12T01:11:16.982Z,27.11
2023-04-12T01:12:16.978Z,27.10
2023-04-12T01:13:16.978Z,27.10
2023-04-12T01:14:16.980Z,27.11
2023-04-12T01:15:16.981Z,27.10
2023-04-12T01:16:17.010Z,27.08
2023-04-12T01:17:17.027Z,27.09
2023-04-12T01:18:16.989Z,27.09
2023-04-12T01:19:16.995Z,27.08
2023-04-12T01:20:17.052Z,27.07
2023-04-12T01:21:16.979Z,27.10
2023-04-12T01:22:16.972Z,27.08
2023-04-12T01:23:16.965Z,27.07
2023-04-12T01:24:16.956Z,27.07
2023-04-12T01:25:16.964Z,27.06
2023-04-12T01:26:17.035Z,27.10
2023-04-12T01:27:16.963Z,27.08
2023-04-12T01:28:16.955Z,27.06
2023-04-12T01:29:16.950Z,27.07
2023-04-12T01:30:16.987Z,27.06
2023-04-12T01:31:16.977Z,27.06
2023-04-12T01:32:16.956Z,27.05
2023-04-12T01:33:16.981Z,27.06
2023-04-12T01:34:16.972Z,27.07
2023-04-12T01:35:16.976Z,27.07
2023-04-12T01:36:16.968Z,27.04
2023-04-12T01:37:16.962Z,27.06
2023-04-12T01:38:16.973Z,27.05
2023-04-12T01:39:16.983Z,27.06
2023-04-12T01:40:16.963Z,27.06
2023-04-12T01:41:16.970Z,27.06
2023-04-12T01:42:16.960Z,27.06
2023-04-12T01:43:16.963Z,27.04
2023-04-12T01:44:16.993Z,27.06
2023-04-12T01:45:16.960Z,27.05
2023-04-12T01:46:17.139Z,27.04
2023-04-12T01:47:16.981Z,27.04
2023-04-12T01:48:16.986Z,27.04
2023-04-12T01:49:17.009Z,27.03
2023-04-12T01:50:16.974Z,27.06
2023-04-12T01:51:16.976Z,27.05
2023-04-12T01:52:16.964Z,27.06
2023-04-12T01:53:16.959Z,27.05
2023-04-12T01:54:16.961Z,27.07
2023-04-12T01:55:16.973Z,27.04
2023-04-12T01:56:16.953Z,27.04
2023-04-12T01:57:16.949Z,27.02
2023-04-12T01:58:16.947Z,27.04
2023-04-12T01:59:16.945Z,27.05
2023-04-12T02:00:16.952Z,27.02
2023-04-12T02:01:16.949Z,27.03
2023-04-12T02:02:17.029Z,27.02
2023-04-12T02:03:17.095Z,27.02
2023-04-12T02:04:16.962Z,27.02
2023-04-12T02:05:16.957Z,27.03
2023-04-12T02:06:16.920Z,27.01
2023-04-12T02:07:16.914Z,27.03
2023-04-12T02:08:16.919Z,27.01
2023-04-12T02:09:16.921Z,27.00
2023-04-12T02:10:16.904Z,27.01
2023-04-12T02:11:16.917Z,27.01
2023-04-12T02:12:16.910Z,27.01
2023-04-12T02:13:16.901Z,27.00
2023-04-12T02:14:16.908Z,27.01
2023-04-12T02:15:16.896Z,27.00
2023-04-12T02:16:16.932Z,26.99
2023-04-12T02:17:16.889Z,27.03
2023-04-12T02:18:16.922Z,27.01
2023-04-12T02:19:16.894Z,27.01
2023-04-12T02:20:16.872Z,26.98
2023-04-12T02:21:16.892Z,27.00
2023-04-12T02:22:16.859Z,26.98
2023-04-12T02:23:16.858Z,27.02
2023-04-12T02:24:16.863Z,27.01
2023-04-12T02:25:16.865Z,27.00
2023-04-12T02:26:16.859Z,27.00
2023-04-12T02:27:16.858Z,27.02
2023-04-12T02:28:16.856Z,26.98
2023-04-12T02:29:16.845Z,26.99
2023-04-12T02:30:16.853Z,26.98
2023-04-12T02:31:17.204Z,26.98
2023-04-12T02:32:16.849Z,26.97
2023-04-12T02:33:16.830Z,27.01
2023-04-12T02:34:16.833Z,27.01
2023-04-12T02:35:16.898Z,27.00
2023-04-12T02:36:16.836Z,26.99
2023-04-12T02:37:16.867Z,26.99
2023-04-12T02:38:16.827Z,27.00
2023-04-12T02:39:16.821Z,26.99
2023-04-12T02:40:16.819Z,26.99
2023-04-12T02:41:16.824Z,27.00
2023-04-12T02:42:16.837Z,26.99
2023-04-12T02:43:16.814Z,26.98
2023-04-12T02:44:16.821Z,27.00
2023-04-12T02:45:16.824Z,26.98
2023-04-12T02:46:16.864Z,27.00
2023-04-12T02:47:16.824Z,26.99
2023-04-12T02:48:16.828Z,26.99
2023-04-12T02:49:16.833Z,26.98
2023-04-12T02:50:16.823Z,26.98
2023-04-12T02:51:16.817Z,27.00
2023-04-12T02:52:16.829Z,27.00
2023-04-12T02:53:16.866Z,27.00
2023-04-12T02:54:16.837Z,26.99
2023-04-12T02:55:16.835Z,26.99
2023-04-12T02:56:16.848Z,27.00
2023-04-12T02:57:16.846Z,26.99
2023-04-12T02:58:16.840Z,26.97
2023-04-12T02:59:16.826Z,26.99
2023-04-12T03:00:16.830Z,26.97
2023-04-12T03:01:16.880Z,26.99
2023-04-12T03:02:16.875Z,26.99
2023-04-12T03:03:17.052Z,26.99
2023-04-12T03:04:17.061Z,27.00
2023-04-12T03:05:16.808Z,26.97
2023-04-12T03:06:16.826Z,26.97
2023-04-12T03:07:16.823Z,26.96
2023-04-12T03:08:16.810Z,26.98
2023-04-12T03:09:16.829Z,26.97
2023-04-12T03:10:16.841Z,26.97
2023-04-12T03:11:16.797Z,26.97
2023-04-12T03:12:16.800Z,26.97
2023-04-12T03:13:16.785Z,26.98
2023-04-12T03:14:16.788Z,26.97
2023-04-12T03:15:16.786Z,26.95
2023-04-12T03:16:16.823Z,26.97
2023-04-12T03:17:16.773Z,26.98
2023-04-12T03:18:16.781Z,26.96
2023-04-12T03:19:16.782Z,26.96
2023-04-12T03:20:16.767Z,26.98
2023-04-12T03:21:16.758Z,26.97
2023-04-12T03:22:16.759Z,26.99
2023-04-12T03:23:16.754Z,26.96
2023-04-12T03:24:16.750Z,26.98
2023-04-12T03:25:16.827Z,26.97
2023-04-12T03:26:16.747Z,26.96
2023-04-12T03:27:16.743Z,26.96
2023-04-12T03:28:16.743Z,26.96
2023-04-12T03:29:16.731Z,26.98
2023-04-12T03:30:16.729Z,26.99
2023-04-12T03:31:16.785Z,26.97
2023-04-12T03:32:16.742Z,26.98
2023-04-12T03:33:16.726Z,26.97
2023-04-12T03:34:16.729Z,26.96
2023-04-12T03:35:16.813Z,26.96
2023-04-12T03:36:16.732Z,26.96
2023-04-12T03:37:16.752Z,26.99
2023-04-12T03:38:16.723Z,26.97
2023-04-12T03:39:16.715Z,26.97
2023-04-12T03:40:16.725Z,26.95
2023-04-12T03:41:16.925Z,26.97
2023-04-12T03:42:31.620Z,26.98
2023-04-12T03:43:16.704Z,26.97
2023-04-12T03:44:16.697Z,26.98
2023-04-12T03:45:16.688Z,26.97
2023-04-12T03:46:16.759Z,26.97
2023-04-12T03:47:16.684Z,26.97
2023-04-12T03:48:16.668Z,26.98
2023-04-12T03:49:16.733Z,26.95
2023-04-12T03:50:16.650Z,26.94
2023-04-12T03:51:16.656Z,26.97
2023-04-12T03:52:16.646Z,26.96
2023-04-12T03:53:16.635Z,26.97
2023-04-12T03:54:16.633Z,26.98
2023-04-12T03:55:16.662Z,26.96
2023-04-12T03:56:16.629Z,26.96
2023-04-12T03:57:16.662Z,26.96
2023-04-12T03:58:16.675Z,26.96
2023-04-12T03:59:16.615Z,26.95
2023-04-12T04:00:16.663Z,26.96
2023-04-12T04:01:16.624Z,26.95
2023-04-12T04:02:16.747Z,26.96
2023-04-12T04:03:16.701Z,26.97
2023-04-12T04:04:16.845Z,26.95
2023-04-12T04:05:16.680Z,26.94
2023-04-12T04:06:16.620Z,26.95
2023-04-12T04:07:16.653Z,26.93
2023-04-12T04:08:16.624Z,26.94
2023-04-12T04:09:16.627Z,26.95
2023-04-12T04:10:16.621Z,26.94
2023-04-12T04:11:16.620Z,26.93
2023-04-12T04:12:16.662Z,26.95
2023-04-12T04:13:16.654Z,26.95
2023-04-12T04:14:16.653Z,26.95
2023-04-12T04:15:16.639Z,26.93
2023-04-12T04:16:16.657Z,26.94
2023-04-12T04:17:16.634Z,26.95
2023-04-12T04:18:16.635Z,26.94
2023-04-12T04:19:16.630Z,26.95
2023-04-12T04:20:16.628Z,26.92
2023-04-12T04:21:16.635Z,26.92
2023-04-12T04:22:16.637Z,26.95
2023-04-12T04:23:16.641Z,26.94
2023-04-12T04:24:16.630Z,26.94
2023-04-12T04:25:16.642Z,26.93
2023-04-12T04:26:16.639Z,26.93
2023-04-12T04:27:16.639Z,26.94
2023-04-12T04:28:16.646Z,26.95
2023-04-12T04:29:16.660Z,26.92
2023-04-12T04:30:16.635Z,26.93
2023-04-12T04:31:16.691Z,26.94
2023-04-12T04:32:16.663Z,26.94
2023-04-12T04:33:16.639Z,26.95
2023-04-12T04:34:16.643Z,26.92
2023-04-12T04:35:16.730Z,26.93
2023-04-12T04:36:16.668Z,26.94
2023-04-12T04:37:16.644Z,26.94
2023-04-12T04:38:16.641Z,26.95
2023-04-12T04:39:16.649Z,26.93
2023-04-12T04:40:16.650Z,26.94
2023-04-12T04:41:16.644Z,26.92
2023-04-12T04:42:16.666Z,26.95
2023-04-12T04:43:16.645Z,26.91
2023-04-12T04:44:16.645Z,26.93
2023-04-12T04:45:16.682Z,26.92
2023-04-12T04:46:16.694Z,26.93
2023-04-12T04:47:16.651Z,26.93
2023-04-12T04:48:16.618Z,26.92
2023-04-12T04:49:16.233Z,26.91
2023-04-12T04:50:16.248Z,26.92
2023-04-12T04:51:16.232Z,26.93
2023-04-12T04:52:16.235Z,26.93
2023-04-12T04:53:16.214Z,26.91
2023-04-12T04:54:16.209Z,26.92
2023-04-12T04:55:16.203Z,26.93
2023-04-12T04:56:16.206Z,26.93
2023-04-12T04:57:16.184Z,26.90
2023-04-12T04:58:16.180Z,26.91
2023-04-12T04:59:16.161Z,26.93
2023-04-12T05:00:16.164Z,26.93
2023-04-12T05:01:16.196Z,26.92
2023-04-12T05:02:16.723Z,26.93
2023-04-12T05:03:16.290Z,26.89
2023-04-12T05:04:16.172Z,26.93
2023-04-12T05:05:16.128Z,26.93
2023-04-12T05:06:16.111Z,26.91
2023-04-12T05:07:16.107Z,26.92
2023-04-12T05:08:16.107Z,26.93
2023-04-12T05:09:16.087Z,26.92
2023-04-12T05:10:16.091Z,26.91
2023-04-12T05:11:16.075Z,26.91
2023-04-12T05:12:16.066Z,26.91
2023-04-12T05:13:16.670Z,26.90
2023-04-12T05:14:16.056Z,26.91
2023-04-12T05:15:16.041Z,26.91
2023-04-12T05:16:16.072Z,26.91
2023-04-12T05:17:16.116Z,26.91
2023-04-12T05:18:16.667Z,26.89
2023-04-12T05:19:16.018Z,26.90
2023-04-12T05:20:16.010Z,26.90
2023-04-12T05:21:16.019Z,26.96
2023-04-12T05:22:16.029Z,27.08
2023-04-12T05:23:16.017Z,27.13
2023-04-12T05:24:16.016Z,27.18
2023-04-12T05:25:16.054Z,27.23
2023-04-12T05:26:16.003Z,27.24
2023-04-12T05:27:16.014Z,27.27
2023-04-12T05:28:16.001Z,27.33
2023-04-12T05:29:16.010Z,27.35
2023-04-12T05:30:15.998Z,27.39
2023-04-12T05:31:16.069Z,27.45
2023-04-12T05:32:16.690Z,27.46
2023-04-12T05:33:16.149Z,27.50
2023-04-12T05:34:16.008Z,27.49
2023-04-12T05:35:16.010Z,27.53
2023-04-12T05:36:16.010Z,27.55
2023-04-12T05:37:16.682Z,27.59
2023-04-12T05:38:16.076Z,27.67
2023-04-12T05:39:16.101Z,27.67
2023-04-12T05:40:16.140Z,27.74
2023-04-12T05:41:16.164Z,27.76
2023-04-12T05:42:16.212Z,27.81
2023-04-12T05:43:16.908Z,27.90
2023-04-12T05:44:16.699Z,27.94
2023-04-12T05:45:16.708Z,27.95
2023-04-12T05:46:16.738Z,27.98
2023-04-12T05:47:16.932Z,27.98
2023-04-12T05:48:16.699Z,28.06
2023-04-12T05:49:16.710Z,28.09
2023-04-12T05:50:16.937Z,28.13
2023-04-12T05:51:18.283Z,28.13
2023-04-12T05:52:16.941Z,28.18
2023-04-12T05:53:19.955Z,28.21
2023-04-12T05:54:16.761Z,28.28
2023-04-12T05:55:16.963Z,28.32
2023-04-12T05:56:16.742Z,28.54
2023-04-12T05:57:16.933Z,28.64
2023-04-12T05:58:17.057Z,28.65
2023-04-12T05:59:16.737Z,28.65
2023-04-12T06:00:19.926Z,28.63
2023-04-12T06:01:16.740Z,28.62
2023-04-12T06:03:16.919Z,28.59
2023-04-12T06:04:17.830Z,28.53
2023-04-12T06:05:16.895Z,28.45
2023-04-12T06:06:16.717Z,28.40
2023-04-12T06:07:16.673Z,28.40
2023-04-12T06:08:16.930Z,28.39
2023-04-12T06:09:16.652Z,28.36
2023-04-12T06:10:16.672Z,28.36
2023-04-12T06:11:16.629Z,28.35
2023-04-12T06:12:16.653Z,28.33
2023-04-12T06:13:16.653Z,28.31
2023-04-12T06:14:16.686Z,28.29
2023-04-12T06:15:16.726Z,28.29
2023-04-12T06:16:16.772Z,28.28
2023-04-12T06:17:17.150Z,28.27
2023-04-12T06:18:16.952Z,28.26
2023-04-12T06:19:16.939Z,28.26
2023-04-12T06:20:16.797Z,28.25
2023-04-12T06:21:16.998Z,28.23
2023-04-12T06:22:16.987Z,28.22
2023-04-12T06:23:16.944Z,28.23
2023-04-12T06:24:16.904Z,28.23
2023-04-12T06:25:16.930Z,28.19
2023-04-12T06:26:18.389Z,28.21
2023-04-12T06:27:16.914Z,28.18
2023-04-12T06:28:16.963Z,28.19
2023-04-12T06:29:16.896Z,28.17
2023-04-12T06:30:16.892Z,28.18
2023-04-12T06:31:17.015Z,28.15
2023-04-12T06:32:17.007Z,28.16
2023-04-12T06:33:16.947Z,28.14
2023-04-12T06:34:16.851Z,28.13
2023-04-12T06:35:16.859Z,28.14
2023-04-12T06:36:16.909Z,28.12
2023-04-12T06:37:17.039Z,28.11
2023-04-12T06:38:16.844Z,28.12
2023-04-12T06:39:17.092Z,28.09
2023-04-12T06:40:16.813Z,28.11
2023-04-12T06:41:16.815Z,28.09
2023-04-12T06:42:17.580Z,28.09
2023-04-12T06:43:16.795Z,28.07
2023-04-12T06:44:16.971Z,28.09
2023-04-12T06:45:16.803Z,28.06
2023-04-12T06:46:16.793Z,28.05
2023-04-12T06:47:16.939Z,28.06
2023-04-12T06:48:17.752Z,28.03
2023-04-12T06:49:16.933Z,28.03
2023-04-12T06:50:16.754Z,28.04
2023-04-12T06:51:16.735Z,28.03
2023-04-12T06:52:16.727Z,28.02
2023-04-12T06:53:16.745Z,28.02
2023-04-12T06:54:16.944Z,28.02
2023-04-12T06:55:16.711Z,28.00
2023-04-12T06:56:18.581Z,28.00
2023-04-12T06:57:16.686Z,28.00
2023-04-12T06:58:16.932Z,27.99
2023-04-12T06:59:16.671Z,28.01
2023-04-12T07:00:16.698Z,27.99
2023-04-12T07:01:16.727Z,27.99
2023-04-12T07:02:16.722Z,27.96
2023-04-12T07:03:16.987Z,27.98
2023-04-12T07:04:16.732Z,27.96
2023-04-12T07:05:16.638Z,27.96
2023-04-12T07:06:24.946Z,27.94
2023-04-12T07:07:16.616Z,27.97
2023-04-12T07:08:17.051Z,27.95
2023-04-12T07:09:16.644Z,27.95
2023-04-12T07:10:16.603Z,27.94
2023-04-12T07:11:21.575Z,27.95
2023-04-12T07:12:16.608Z,27.97
2023-04-12T07:13:16.955Z,27.96
2023-04-12T07:14:17.038Z,27.96
2023-04-12T07:15:16.590Z,27.96
2023-04-12T07:16:16.583Z,27.95
2023-04-12T07:17:16.980Z,27.94
2023-04-12T07:18:16.591Z,27.91
2023-04-12T07:19:16.574Z,27.92
2023-04-12T07:20:17.485Z,27.91
2023-04-12T07:21:16.565Z,27.93
2023-04-12T07:22:16.560Z,27.93
2023-04-12T07:23:16.553Z,27.93
2023-04-12T07:24:16.965Z,27.94
2023-04-12T07:25:16.567Z,27.90
2023-04-12T07:26:16.538Z,27.91
2023-04-12T07:27:17.521Z,27.91
2023-04-12T07:28:16.524Z,27.90
2023-04-12T07:29:16.963Z,27.90
2023-04-12T07:30:16.551Z,27.88
2023-04-12T07:31:16.520Z,27.89
2023-04-12T07:32:16.984Z,27.95
2023-04-12T07:33:19.898Z,28.17
2023-04-12T07:34:16.593Z,28.32
2023-04-12T07:35:16.475Z,28.39
2023-04-12T07:36:16.584Z,28.60
2023-04-12T07:37:17.487Z,29.08
2023-04-12T07:38:17.060Z,29.10
2023-04-12T07:39:16.511Z,29.27
2023-04-12T07:40:16.411Z,29.45
2023-04-12T07:41:16.452Z,29.55
2023-04-12T07:42:17.142Z,29.77
2023-04-12T07:43:16.518Z,29.88
2023-04-12T07:44:17.783Z,30.15
2023-04-12T07:45:17.003Z,30.29
2023-04-12T07:46:16.833Z,30.39
2023-04-12T07:47:16.975Z,30.27
2023-04-12T07:48:16.535Z,30.46
2023-04-12T07:49:17.009Z,30.54
2023-04-12T07:50:16.611Z,30.55
2023-04-12T07:51:16.588Z,30.67
2023-04-12T07:52:16.941Z,30.81
2023-04-12T07:53:16.787Z,30.94
2023-04-12T07:54:17.001Z,30.95
2023-04-12T07:55:17.791Z,31.13
2023-04-12T07:56:16.803Z,30.86
2023-04-12T07:57:17.075Z,30.29
2023-04-12T07:58:16.847Z,30.36
2023-04-12T07:59:16.868Z,30.37
2023-04-12T08:00:16.865Z,30.15
2023-04-12T08:01:16.896Z,30.12
2023-04-12T08:02:25.632Z,30.16
2023-04-12T08:03:17.120Z,30.12
2023-04-12T08:04:17.093Z,30.26
2023-04-12T08:05:17.061Z,30.45
2023-04-12T08:06:17.036Z,30.51
2023-04-12T08:07:17.894Z,31.11
2023-04-12T08:08:17.908Z,30.70
2023-04-12T08:09:17.052Z,30.94
2023-04-12T08:10:17.891Z,31.13
2023-04-12T08:11:16.890Z,31.19
2023-04-12T08:12:17.135Z,31.53
2023-04-12T08:13:17.879Z,31.76
2023-04-12T08:14:17.842Z,31.85
2023-04-12T08:15:16.829Z,31.85
2023-04-12T08:16:17.082Z,31.76
2023-04-12T08:17:16.942Z,31.94
2023-04-12T08:18:17.010Z,32.11
2023-04-12T08:19:17.043Z,32.11
2023-04-12T08:20:17.106Z,32.05
2023-04-12T08:21:17.821Z,32.25
2023-04-12T08:22:17.309Z,32.24
2023-04-12T08:23:17.401Z,32.31
2023-04-12T08:24:17.267Z,31.77
2023-04-12T08:25:17.372Z,31.90
2023-04-12T08:26:18.014Z,31.96
2023-04-12T08:27:17.682Z,32.17
2023-04-12T08:28:18.016Z,32.48
2023-04-12T08:29:17.729Z,32.41
2023-04-12T08:30:17.654Z,32.33
2023-04-12T08:31:17.746Z,32.31
2023-04-12T08:32:18.718Z,32.38
2023-04-12T08:33:17.685Z,32.42
2023-04-12T08:34:17.743Z,32.45
2023-04-12T08:35:18.249Z,32.47
2023-04-12T08:36:17.854Z,32.46
2023-04-12T08:37:17.879Z,32.44
2023-04-12T08:38:18.511Z,32.47
2023-04-12T08:39:18.037Z,32.58
2023-04-12T08:40:19.019Z,32.47
2023-04-12T08:41:17.943Z,32.27
2023-04-12T08:42:17.953Z,32.38
2023-04-12T08:43:18.029Z,32.29
2023-04-12T08:44:17.952Z,32.23
2023-04-12T08:45:18.098Z,32.17
2023-04-12T08:46:18.048Z,32.24
2023-04-12T08:47:18.221Z,32.30
2023-04-12T08:48:18.528Z,32.41
2023-04-12T08:49:18.238Z,32.44
2023-04-12T08:50:18.861Z,32.56
2023-04-12T08:51:19.348Z,32.55
2023-04-12T08:52:18.367Z,32.57
2023-04-12T08:53:18.540Z,32.62
2023-04-12T08:54:18.475Z,32.65
2023-04-12T08:55:18.519Z,32.85
2023-04-12T08:56:18.553Z,32.84
2023-04-12T08:57:18.598Z,32.86
2023-04-12T08:58:18.999Z,32.87
2023-04-12T08:59:18.787Z,32.94
2023-04-12T09:00:19.001Z,33.07
2023-04-12T09:01:18.791Z,33.01
2023-04-12T09:02:18.847Z,32.22
2023-04-12T09:03:19.276Z,31.94
2023-04-12T09:04:19.004Z,31.57
2023-04-12T09:05:19.030Z,31.71
2023-04-12T09:06:18.943Z,31.61
2023-04-12T09:07:18.954Z,31.51
2023-04-12T09:08:19.008Z,31.60
2023-04-12T09:09:18.963Z,31.85
2023-04-12T09:10:19.011Z,32.09
2023-04-12T09:11:19.022Z,32.17
2023-04-12T09:12:19.058Z,32.37
2023-04-12T09:13:19.504Z,32.81
2023-04-12T09:14:19.048Z,33.04
2023-04-12T09:15:19.508Z,32.99
2023-04-12T09:16:19.160Z,32.82
2023-04-12T09:17:19.208Z,32.91
2023-04-12T09:18:19.255Z,32.92
2023-04-12T09:19:19.508Z,33.05
2023-04-12T09:20:19.337Z,32.55
2023-04-12T09:21:19.373Z,31.89
2023-04-12T09:22:19.433Z,31.93
2023-04-12T09:23:19.521Z,31.70
2023-04-12T09:24:19.512Z,31.59
2023-04-12T09:25:19.512Z,31.51
2023-04-12T09:26:19.481Z,31.76
2023-04-12T09:27:19.500Z,31.82
2023-04-12T09:28:19.594Z,31.84
2023-04-12T09:29:20.032Z,31.40
2023-04-12T09:30:19.714Z,31.29
2023-04-12T09:31:19.818Z,31.96
2023-04-12T09:32:19.706Z,31.94
2023-04-12T09:33:19.794Z,32.88
2023-04-12T09:34:20.052Z,33.21
2023-04-12T09:35:19.747Z,33.17
2023-04-12T09:36:19.838Z,33.21
2023-04-12T09:37:19.865Z,33.15
2023-04-12T09:38:20.052Z,33.18
2023-04-12T09:39:19.974Z,32.72
2023-04-12T09:40:20.000Z,32.84
2023-04-12T09:41:22.526Z,32.95
2023-04-12T09:42:33.273Z,32.97
2023-04-12T09:43:20.037Z,32.80
2023-04-12T09:44:20.116Z,32.92
2023-04-12T09:45:20.083Z,32.81
2023-04-12T09:46:20.089Z,32.97
2023-04-12T09:47:27.393Z,32.89
2023-04-12T09:48:21.002Z,33.06
2023-04-12T09:49:19.954Z,33.05
2023-04-12T09:50:21.018Z,33.01
2023-04-12T09:51:20.329Z,33.14
2023-04-12T09:52:19.907Z,33.19
2023-04-12T09:53:19.910Z,33.27
2023-04-12T09:54:19.903Z,33.25
2023-04-12T09:55:20.038Z,33.27
2023-04-12T09:56:19.860Z,33.26
2023-04-12T09:57:19.883Z,33.26
2023-04-12T09:58:19.872Z,33.25
2023-04-12T09:59:20.040Z,33.27
2023-04-12T10:00:19.916Z,33.28
2023-04-12T10:01:20.058Z,33.27
2023-04-12T10:02:19.987Z,33.31
2023-04-12T10:03:20.239Z,33.33
2023-04-12T10:04:20.177Z,33.41
2023-04-12T10:05:21.035Z,33.35
2023-04-12T10:06:20.092Z,33.39
2023-04-12T10:07:20.142Z,33.52
2023-04-12T10:08:20.190Z,33.50
2023-04-12T10:09:20.834Z,33.55
2023-04-12T10:10:20.402Z,33.65
2023-04-12T10:11:20.337Z,33.72
2023-04-12T10:12:20.377Z,33.73
2023-04-12T10:13:20.872Z,33.75
2023-04-12T10:14:20.456Z,33.81
2023-04-12T10:15:20.505Z,33.94
2023-04-12T10:16:20.653Z,33.99
2023-04-12T10:17:20.575Z,34.05
2023-04-12T10:18:21.028Z,34.14
2023-04-12T10:19:20.578Z,34.09
2023-04-12T10:20:20.603Z,34.05
2023-04-12T10:21:20.685Z,34.04
2023-04-12T10:22:20.631Z,33.72
2023-04-12T10:23:21.103Z,33.88
2023-04-12T10:24:21.041Z,33.83
2023-04-12T10:25:20.827Z,33.87
2023-04-12T10:26:20.778Z,33.70
2023-04-12T10:27:21.740Z,33.65
2023-04-12T10:28:20.793Z,33.55
2023-04-12T10:29:21.073Z,33.62
2023-04-12T10:30:20.944Z,33.33
2023-04-12T10:31:21.182Z,33.27
2023-04-12T10:32:20.953Z,33.17
2023-04-12T10:33:22.113Z,33.24
2023-04-12T10:34:21.044Z,33.12
2023-04-12T10:35:21.012Z,33.18
2023-04-12T10:36:21.146Z,33.07
2023-04-12T10:37:21.099Z,32.85
2023-04-12T10:38:21.545Z,32.72
2023-04-12T10:39:21.167Z,32.61
2023-04-12T10:40:21.273Z,32.61
2023-04-12T10:41:21.310Z,32.54
2023-04-12T10:42:21.314Z,32.50
2023-04-12T10:43:21.419Z,32.35
2023-04-12T10:44:21.422Z,32.41
2023-04-12T10:45:21.488Z,32.61
2023-04-12T10:46:21.536Z,32.68
2023-04-12T10:47:21.552Z,32.71
2023-04-12T10:48:22.172Z,32.69
2023-04-12T10:49:21.578Z,32.55
2023-04-12T10:50:22.380Z,32.55
2023-04-12T10:51:22.815Z,32.58
2023-04-12T10:52:21.917Z,32.59
2023-04-12T10:53:21.772Z,32.40
2023-04-12T10:54:21.760Z,32.39
2023-04-12T10:55:22.179Z,32.35
2023-04-12T10:56:22.603Z,32.30
2023-04-12T10:57:22.194Z,32.23
2023-04-12T10:58:22.199Z,32.05
2023-04-12T10:59:22.209Z,32.04
2023-04-12T11:00:22.244Z,32.03
2023-04-12T11:01:22.314Z,32.22
2023-04-12T11:02:22.344Z,32.27
2023-04-12T11:03:22.598Z,32.34
2023-04-12T11:04:22.458Z,32.32
2023-04-12T11:05:22.273Z,31.66
2023-04-12T11:06:27.646Z,31.82
2023-04-12T11:07:22.875Z,31.81
2023-04-12T11:08:22.250Z,31.82
2023-04-12T11:09:22.345Z,31.83
2023-04-12T11:10:23.029Z,31.74
2023-04-12T11:11:22.254Z,31.65
2023-04-12T11:12:22.239Z,31.81
2023-04-12T11:13:22.226Z,31.97
2023-04-12T11:14:22.201Z,32.11
2023-04-12T11:15:22.625Z,32.15
2023-04-12T11:16:22.611Z,32.10
2023-04-12T11:17:22.750Z,32.08
2023-04-12T11:18:22.242Z,32.11
2023-04-12T11:19:22.177Z,32.09
2023-04-12T11:20:22.206Z,32.08
2023-04-12T11:21:22.186Z,32.09
2023-04-12T11:22:22.215Z,32.07
2023-04-12T11:23:22.686Z,32.07
2023-04-12T11:24:22.198Z,32.07
2023-04-12T11:25:22.407Z,32.09
2023-04-12T11:26:22.400Z,32.28
2023-04-12T11:27:22.404Z,32.35
2023-04-12T11:28:28.626Z,32.37
2023-04-12T11:29:22.565Z,32.45
2023-04-12T11:30:22.422Z,32.49
2023-04-12T11:31:22.460Z,32.61
2023-04-12T11:32:22.561Z,32.57
2023-04-12T11:33:22.398Z,32.65
2023-04-12T11:34:22.574Z,32.78
2023-04-12T11:35:22.382Z,32.84
2023-04-12T11:36:22.570Z,32.95
2023-04-12T11:37:22.363Z,32.93
2023-04-12T11:38:22.361Z,33.14
2023-04-12T11:39:22.358Z,33.08
2023-04-12T11:40:22.341Z,33.18
2023-04-12T11:41:22.372Z,33.20
2023-04-12T11:42:22.335Z,33.24
2023-04-12T11:43:22.322Z,33.32
2023-04-12T11:44:22.328Z,33.36
2023-04-12T11:45:22.336Z,33.34
2023-04-12T11:46:22.612Z,33.43
2023-04-12T11:47:22.299Z,33.49
2023-04-12T11:48:22.298Z,33.46
2023-04-12T11:49:22.282Z,33.59
2023-04-12T11:50:22.281Z,33.62
2023-04-12T11:51:22.582Z,33.58
2023-04-12T11:52:22.263Z,33.11
2023-04-12T11:53:22.264Z,33.36
2023-04-12T11:54:22.574Z,33.26
2023-04-12T11:55:23.138Z,33.08
2023-04-12T11:56:22.256Z,32.83
2023-04-12T11:57:22.744Z,32.74
2023-04-12T11:58:22.295Z,32.69
2023-04-12T11:59:22.368Z,32.47
2023-04-12T12:00:22.578Z,32.20
2023-04-12T12:01:22.489Z,32.26
2023-04-12T12:02:24.497Z,32.19
2023-04-12T12:03:25.322Z,32.18
2023-04-12T12:04:22.917Z,31.19
2023-04-12T12:05:22.960Z,31.26
2023-04-12T12:06:22.816Z,31.88
2023-04-12T12:07:23.253Z,31.69
2023-04-12T12:08:23.084Z,31.75
2023-04-12T12:09:22.497Z,32.00
2023-04-12T12:10:41.653Z,32.34
2023-04-12T12:11:22.484Z,32.55
2023-04-12T12:12:22.476Z,32.70
2023-04-12T12:13:22.602Z,32.80
2023-04-12T12:14:22.476Z,32.92
2023-04-12T12:15:22.468Z,33.14
2023-04-12T12:16:22.497Z,33.30
2023-04-12T12:17:22.465Z,33.39
2023-04-12T12:18:22.439Z,33.49
2023-04-12T12:19:22.522Z,33.65
2023-04-12T12:20:22.437Z,33.78
2023-04-12T12:21:22.451Z,33.85
2023-04-12T12:22:22.584Z,34.03
2023-04-12T12:23:22.412Z,34.05
2023-04-12T12:24:22.586Z,34.19
2023-04-12T12:25:22.394Z,34.25
2023-04-12T12:26:22.458Z,34.33
2023-04-12T12:27:22.412Z,34.42
2023-04-12T12:28:22.369Z,34.60
2023-04-12T12:29:22.505Z,34.65
2023-04-12T12:30:22.385Z,34.81
2023-04-12T12:31:22.543Z,35.02
2023-04-12T12:32:23.214Z,35.16
2023-04-12T12:33:31.960Z,35.16
2023-04-12T12:34:22.596Z,35.20
2023-04-12T12:35:22.406Z,35.25
2023-04-12T12:36:22.397Z,35.35
2023-04-12T12:37:22.391Z,35.47
2023-04-12T12:38:23.230Z,35.62
2023-04-12T12:39:22.409Z,35.68
2023-04-12T12:40:22.434Z,35.71
2023-04-12T12:41:22.475Z,35.80
2023-04-12T12:42:22.474Z,35.77
2023-04-12T12:43:22.505Z,35.91
2023-04-12T12:44:22.602Z,35.99
2023-04-12T12:45:22.791Z,36.03
2023-04-12T12:46:22.649Z,36.17
2023-04-12T12:47:23.160Z,36.19
2023-04-12T12:48:22.981Z,36.22
2023-04-12T12:49:23.034Z,36.36
2023-04-12T12:50:24.724Z,36.44
2023-04-12T12:51:23.075Z,36.63
2023-04-12T12:52:23.640Z,36.54
2023-04-12T12:53:24.385Z,35.95